TOURFACTS.DK  
Stats and Facts from Tour de France.

Tour de France 2017 starts in 2 days
  Riders   Stages   Teams   Summits   Yearly  


 
Search by year

 After:  2016 - Stage 21:
  14626 starters.
  5126 different riders.
  634 teams.
  2211 stages.
  454 restdays.
  436049.60 km.
  5622 abandonnees.


Top 3
Christopher Froome89:04:48
Romain Bardet89:08:53
Nairo Quintana89:09:09
Rafal Majka209 pt.
Thomas De Gendt130 pt.
Jarlinson Pantano ..121 pt.
Peter Sagan470 pt.
Marcel Kittel228 pt.
Michael Matthews199 pt.
Adam Yates89:09:30
Louis Meintjes89:11:46
Emanuel Buchmann89:52:28
Facts from Tour de France 2015
  |   Stages.  |   Stage winners.  |   Days in yellow  |   Average speed.  |   Route.  |   Teams.  |   All riders.  |   Rookies.  |   Withdrawls.  |  

  |   GC.  |   Polka  |   Green  |   White  |   Summits. (In tour)  |   Summits. (Points)  |   Miscellaneous.  |  

Stage 3 on 06 - 07 - 2015
         Owning:    Fabian Cancellara      André Greipel      Tom Dumoulin  

Pick a stage:  1 2 3 4 5 6 7 8 10 11 12 13 14 15 16 17 18 19 20 21
  AnversHuy | Dist: 159.50 km.
Cat: 4Côte d'EreffeCHEMichael Schär1 points 
Cat: 4Côte de CheravePOLRafal Majka1 points 
Cat: 3Mur de HuyESPJoaquim Rodriguez2 points 

Average speed for all riders in stage:  44,959 km./hr.
    Place:Name:Team:Time:Km/h:
ESPJoaquim RodriguezRUSTeam Katusha03:26:54  +  00:00:00=46,254 
KENChristopher FroomeGBRSky Procycling03:26:54  +  00:00:00=46,254 
FRAAlexis VuillermozFRAAg2r La Mondiale03:26:58  +  00:00:04=46,239 
4 ENGDaniel MartinUSATeam Cannondale - Garmin03:26:59  +  00:00:05=46,236 
5 FRATony GallopinBELLotto Soudal03:27:02  +  00:00:08=46,224 
6 USATejay Van GarderenUSABMC Racing Team03:27:05  +  00:00:11=46,213 
7 ITAVincenzo NibaliKAZAstana Pro Team03:27:05  +  00:00:11=46,213 
8 ENGSimon YatesAUSOrica - GreenEDGE03:27:05  +  00:00:11=46,213 
9 COLNairo QuintanaESPMovistar Team03:27:05  +  00:00:11=46,213 
10 NLDBauke MollemaUSATrek Factory Racing03:27:05  +  00:00:11=46,213 
11 ESPAlejandro ValverdeESPMovistar Team03:27:05  +  00:00:11=46,213 
12 ESPAlberto ContadorRUSTinkoff Saxo03:27:12  +  00:00:18=46,187 
13 COLJulián ArredondoUSATrek Factory Racing03:27:13  +  00:00:19=46,184 
14 NLDRobert GesinkNLDTeam Lotto NL - Jumbo03:27:16  +  00:00:22=46,172 
15 BELGreg Van AvermaetUSABMC Racing Team03:27:16  +  00:00:22=46,172 
16 FRAJean-Christophe PeraudFRAAg2r La Mondiale03:27:18  +  00:00:24=46,165 
17 FRAWarren BarguilDEUTeam Giant Alpecin03:27:18  +  00:00:24=46,165 
18 FRAJulien SimonFRACofidis – Solutions Crédits03:27:22  +  00:00:28=46,150 
19 COLRigoberto UranBELEtixx - Quick Step03:27:28  +  00:00:34=46,128 
20 FRAPierre RollandFRATeam Europcar03:27:30  +  00:00:36=46,120 
21 FRARomain BardetFRAAg2r La Mondiale03:27:30  +  00:00:36=46,120 
22 ZAFLouis MeintjesZAFMTN - Qhubeka P/B Samsung03:27:30  +  00:00:36=46,120 
23 FRACyril GautierFRATeam Europcar03:27:30  +  00:00:36=46,120 
24 CANRyder HesjedalUSATeam Cannondale - Garmin03:27:34  +  00:00:40=46,106 
25 USAAndrew TalanskyUSATeam Cannondale - Garmin03:27:34  +  00:00:40=46,106 
26 DEUTony MartinBELEtixx - Quick Step03:27:34  +  00:00:40=46,106 
27 SVKPeter SaganRUSTinkoff Saxo03:27:34  +  00:00:40=46,106 
28 ARGEduardo SepulvedaFRABretagne - Séché Environnement03:27:39  +  00:00:45=46,087 
29 ESPDaniel NavarroFRACofidis – Solutions Crédits03:27:39  +  00:00:45=46,087 
30 ERIMerhawi GhebremedhinZAFMTN - Qhubeka P/B Samsung03:27:39  +  00:00:45=46,087 
31 CZEZdenek StybarBELEtixx - Quick Step03:27:46  +  00:00:52=46,061 
32 ENGAdam YatesAUSOrica - GreenEDGE03:27:54  +  00:01:00=46,032 
33 ITAGiampaolo CarusoRUSTeam Katusha03:27:59  +  00:01:05=46,013 
34 BELJan BakelantsFRAAg2r La Mondiale03:28:02  +  00:01:08=46,002 
35 ESPSamuel SanchezUSABMC Racing Team03:28:04  +  00:01:10=45,995 
36 WALGeraint ThomasGBRSky Procycling03:28:04  +  00:01:10=45,995 
37 ESPLuis Angel MateFRACofidis – Solutions Crédits03:28:04  +  00:01:10=45,995 
38 PRTRui CostaITALampre-Merida03:28:07  +  00:01:13=45,984 
39 PRTTiago PintoRUSTeam Katusha03:28:07  +  00:01:13=45,984 
40 ESPHaimar ZubeldiaUSATrek Factory Racing03:28:09  +  00:01:15=45,976 
41 DEUPaul VossDEUBora-Argon 1803:28:14  +  00:01:20=45,958 
42 ITAMichele ScarponiKAZAstana Pro Team03:28:16  +  00:01:22=45,951 
43 LUXBob JungelsUSATrek Factory Racing03:28:19  +  00:01:25=45,940 
44 CZELeopold KönigGBRSky Procycling03:28:19  +  00:01:25=45,940 
45 FRAArmindo FonsecaFRABretagne - Séché Environnement03:28:19  +  00:01:25=45,940 
46 DEUPaul MartensNLDTeam Lotto NL - Jumbo03:28:19  +  00:01:25=45,940 
47 ESPAlberto LosadaRUSTeam Katusha03:28:19  +  00:01:25=45,940 
48 CZERoman KreuzigerRUSTinkoff Saxo03:28:19  +  00:01:25=45,940 
49 POLMichal KwiatkowskiBELEtixx - Quick Step03:28:19  +  00:01:25=45,940 
50 DEUDominik NerzDEUBora-Argon 1803:28:19  +  00:01:25=45,940 
51 ZAFJacques Janse Van RensburgZAFMTN - Qhubeka P/B Samsung03:28:23  +  00:01:29=45,925 
52 FRAThibaut PinotFRAFDJ03:28:27  +  00:01:33=45,910 
53 ESPGorka Izaguirre InsaustiESPMovistar Team03:28:27  +  00:01:33=45,910 
54 AUTGeorg PreidlerDEUTeam Giant Alpecin03:28:33  +  00:01:39=45,888 
55 CHEJakob FuglsangKAZAstana Pro Team03:28:33  +  00:01:39=45,888 
56 POLRafal MajkaRUSTinkoff Saxo03:28:46  +  00:01:52=45,841 
57 DEUEmanuel BuchmannDEUBora-Argon 1803:28:53  +  00:01:59=45,815 
58 NLDWilco KeldermanNLDTeam Lotto NL - Jumbo03:28:53  +  00:01:59=45,815 
59 FRAMickaël CherelFRAAg2r La Mondiale03:28:53  +  00:01:59=45,815 
60 NLDSteven KruijswijkNLDTeam Lotto NL - Jumbo03:28:53  +  00:01:59=45,815 
61 POLBartosz HuzarskiDEUBora-Argon 1803:28:53  +  00:01:59=45,815 
62 FRARomain SicardFRATeam Europcar03:28:53  +  00:01:59=45,815 
63 CHEMathias FrankCHEIAM Cycling03:28:53  +  00:01:59=45,815 
64 FRASylvain ChavanelCHEIAM Cycling03:28:53  +  00:01:59=45,815 
65 FRAJérémy RoyFRAFDJ03:29:02  +  00:02:08=45,782 
66 NOREdvald Boasson HagenZAFMTN - Qhubeka P/B Samsung03:29:02  +  00:02:08=45,782 
67 CHESteve MorabitoFRAFDJ03:29:02  +  00:02:08=45,782 
68 FRAAnthony DelaplaceFRABretagne - Séché Environnement03:29:02  +  00:02:08=45,782 
69 CHEMarcel WyssCHEIAM Cycling03:29:11  +  00:02:17=45,749 
70 COLJarlinson Pantano GomezCHEIAM Cycling03:29:23  +  00:02:29=45,706 
71 SVNKristjan KorenUSATeam Cannondale - Garmin03:29:23  +  00:02:29=45,706 
72 FRAFlorian VachonFRABretagne - Séché Environnement03:29:23  +  00:02:29=45,706 
73 USRTanel KangertKAZAstana Pro Team03:29:23  +  00:02:29=45,706 
74 DEUSimon GeschkeDEUTeam Giant Alpecin03:29:47  +  00:02:53=45,618 
75 FRAPierrick FédrigoFRABretagne - Séché Environnement03:29:47  +  00:02:53=45,618 
76 BELTim WellensBELLotto Soudal03:30:18  +  00:03:24=45,506 
77 CZEJan BártaDEUBora-Argon 1803:30:52  +  00:03:58=45,384 
78 NLDStef ClementCHEIAM Cycling03:30:52  +  00:03:58=45,384 
79 AUSRichie PorteGBRSky Procycling03:30:52  +  00:03:58=45,384 
80 NLDKoen De KortDEUTeam Giant Alpecin03:30:52  +  00:03:58=45,384 
81 ENGStephen CummingsZAFMTN - Qhubeka P/B Samsung03:30:52  +  00:03:58=45,384 
82 BELSerge PauwelsZAFMTN - Qhubeka P/B Samsung03:30:52  +  00:03:58=45,384 
83 ITAIvan BassoRUSTinkoff Saxo03:30:52  +  00:03:58=45,384 
84 AUSMichael RogersRUSTinkoff Saxo03:30:52  +  00:03:58=45,384 
85 FRAPerrig QuemeneurFRATeam Europcar03:30:52  +  00:03:58=45,384 
86 ESPJosé Herrada LópezESPMovistar Team03:30:52  +  00:03:58=45,384 
87 FRAChristophe RiblonFRAAg2r La Mondiale03:30:52  +  00:03:58=45,384 
88 DNKLars BakBELLotto Soudal03:30:52  +  00:03:58=45,384 
89 LUXBen GastauerFRAAg2r La Mondiale03:30:52  +  00:03:58=45,384 
90 ERIDaniel TeklehaimanotZAFMTN - Qhubeka P/B Samsung03:30:52  +  00:03:58=45,384 
91 CHEReto HollensteinCHEIAM Cycling03:30:52  +  00:03:58=45,384 
92 NLDBram TankinkNLDTeam Lotto NL - Jumbo03:31:08  +  00:04:14=45,327 
93 FRAThomas VoecklerFRATeam Europcar03:31:08  +  00:04:14=45,327 
94 COLJosé SerpaITALampre-Merida03:31:10  +  00:04:16=45,320 
95 FRAJérôme CoppelCHEIAM Cycling03:31:10  +  00:04:16=45,320 
96 FRABrice FeilluFRABretagne - Séché Environnement03:31:10  +  00:04:16=45,320 
97 FRAAngelo TulikFRATeam Europcar03:31:18  +  00:04:24=45,291 
98 BELJulien VermoteBELEtixx - Quick Step03:31:27  +  00:04:33=45,259 
99 ZAFReinardt Janse Van RensburgZAFMTN - Qhubeka P/B Samsung03:31:27  +  00:04:33=45,259 
100 AUSNathan HaasUSATeam Cannondale - Garmin03:31:30  +  00:04:36=45,248 
101 ITADaniel OssUSABMC Racing Team03:32:11  +  00:05:17=45,103 
102 ESPRubén PlazaITALampre-Merida03:33:07  +  00:06:13=44,905 
103 FRANicolas RocheGBRSky Procycling03:33:07  +  00:06:13=44,905 
104 HRVKristijan DurasekITALampre-Merida03:33:07  +  00:06:13=44,905 
105 NLDPieter WeeningAUSOrica - GreenEDGE03:33:07  +  00:06:13=44,905 
106 ITAMatteo BonoITALampre-Merida03:33:07  +  00:06:13=44,905 
107 PRTNelson OliveiraITALampre-Merida03:33:07  +  00:06:13=44,905 
108 USRRamunas NavardauskasUSATeam Cannondale - Garmin03:33:07  +  00:06:13=44,905 
109 POLMichal GolasBELEtixx - Quick Step03:33:07  +  00:06:13=44,905 
110 CHEMichael AlbasiniAUSOrica - GreenEDGE03:33:19  +  00:06:25=44,863 
111 ESPRafael Valls FerriITALampre-Merida03:33:29  +  00:06:35=44,828 
112 CHEMichael SchärUSABMC Racing Team03:33:43  +  00:06:49=44,779 
113 CHEDanilo WyssUSABMC Racing Team03:33:43  +  00:06:49=44,779 
114 ITADamiano CarusoUSABMC Racing Team03:33:43  +  00:06:49=44,779 
115 CHEGregory RastUSATrek Factory Racing03:33:43  +  00:06:49=44,779 
116 COLWinner AnaconaESPMovistar Team03:34:11  +  00:07:17=44,681 
117 LUXLaurent DidierUSATrek Factory Racing03:34:11  +  00:07:17=44,681 
118 FRAArnaud GérardFRABretagne - Séché Environnement03:34:55  +  00:08:01=44,529 
119 IMNPeter KennaughGBRSky Procycling03:34:55  +  00:08:01=44,529 
120 UKRAndriy GrivkoKAZAstana Pro Team03:35:08  +  00:08:14=44,484 
121 USRRein TaaramäeKAZAstana Pro Team03:35:20  +  00:08:26=44,443 
122 AUSRohan DennisUSABMC Racing Team03:36:34  +  00:09:40=44,190 
123 ESPJonathan CastroviejoESPMovistar Team03:37:09  +  00:10:15=44,071 
124 ITALuca PaoliniRUSTeam Katusha03:37:32  +  00:10:38=43,993 
125 AUSLuke DurbridgeAUSOrica - GreenEDGE03:37:39  +  00:10:45=43,970 
126 NLDDylan Van BaarleUSATeam Cannondale - Garmin03:37:39  +  00:10:45=43,970 
127 BELThomas De GendtBELLotto Soudal03:37:39  +  00:10:45=43,970 
128 FRAMatthieu LadagnousFRAFDJ03:37:39  +  00:10:45=43,970 
129 NLDRoy CurversDEUTeam Giant Alpecin03:37:39  +  00:10:45=43,970 
130 NLDLieuwe WestraKAZAstana Pro Team03:37:39  +  00:10:45=43,970 
131 FRAFrédéric BrunFRABretagne - Séché Environnement03:37:39  +  00:10:45=43,970 
132 NLDWout PoelsGBRSky Procycling03:37:39  +  00:10:45=43,970 
133 FRAAlexandre GeniezFRAFDJ03:37:39  +  00:10:45=43,970 
134 NLDLars BoomKAZAstana Pro Team03:37:42  +  00:10:48=43,960 
135 FRABenoit VaugrenardFRAFDJ03:37:48  +  00:10:54=43,939 
136 NLDRamon SinkeldamDEUTeam Giant Alpecin03:37:48  +  00:10:54=43,939 
137 DEUMarcel SiebergBELLotto Soudal03:37:48  +  00:10:54=43,939 
138 FRANicolas EdetFRACofidis – Solutions Crédits03:37:48  +  00:10:54=43,939 
139 NLDAlbert TimmerDEUTeam Giant Alpecin03:37:48  +  00:10:54=43,939 
140 FRABryan CoquardFRATeam Europcar03:37:48  +  00:10:54=43,939 
141 AUTMatthias BrändleCHEIAM Cycling03:37:48  +  00:10:54=43,939 
142 FRABryan NauleauFRATeam Europcar03:37:48  +  00:10:54=43,939 
143 FRAGeoffrey SoupeFRACofidis – Solutions Crédits03:37:48  +  00:10:54=43,939 
144 AUSAdam HansenBELLotto Soudal03:37:48  +  00:10:54=43,939 
145 NLDJos Van EmdenNLDTeam Lotto NL - Jumbo03:37:48  +  00:10:54=43,939 
146 DEUAndré GreipelBELLotto Soudal03:37:48  +  00:10:54=43,939 
147 FRASébastien ChavanelFRAFDJ03:37:48  +  00:10:54=43,939 
148 BELSep VanmarckeNLDTeam Lotto NL - Jumbo03:37:48  +  00:10:54=43,939 
149 CHEMartin ElmigerCHEIAM Cycling03:37:48  +  00:10:54=43,939 
150 FRAArnaud DémareFRAFDJ03:37:48  +  00:10:54=43,939 
151 BELStijn DevolderUSATrek Factory Racing03:37:48  +  00:10:54=43,939 
152 KAZDmitriy GruzdevKAZAstana Pro Team03:37:48  +  00:10:54=43,939 
153 ITAMatteo TrentinBELEtixx - Quick Step03:37:48  +  00:10:54=43,939 
154 ITAAdriano MaloriESPMovistar Team03:37:48  +  00:10:54=43,939 
155 ESPImanol ErvitiESPMovistar Team03:37:48  +  00:10:54=43,939 
156 FRADamien GaudinFRAAg2r La Mondiale03:37:56  +  00:11:02=43,913 
157 FRAFlorian SénéchalFRACofidis – Solutions Crédits03:37:56  +  00:11:02=43,913 
158 FRAYohann GèneFRATeam Europcar03:37:56  +  00:11:02=43,913 
159 FRAPierre-Luc PérichonFRABretagne - Séché Environnement03:37:56  +  00:11:02=43,913 
160 NZLJack BauerUSATeam Cannondale - Garmin03:37:56  +  00:11:02=43,913 
161 BELJens DebusschereBELLotto Soudal03:37:56  +  00:11:02=43,913 
162 PRTJosé João PimentaDEUBora-Argon 1803:37:56  +  00:11:02=43,913 
163 USATyler FarrarZAFMTN - Qhubeka P/B Samsung03:37:56  +  00:11:02=43,913 
164 ITADaniele BennatiRUSTinkoff Saxo03:38:03  +  00:11:09=43,889 
165 ITAMatteo TosattoRUSTinkoff Saxo03:38:03  +  00:11:09=43,889 
166 DNKMichael ValgrenRUSTinkoff Saxo03:38:03  +  00:11:09=43,889 
167 FRAChristophe LaporteFRACofidis – Solutions Crédits03:38:03  +  00:11:09=43,889 
168 AUSMark RenshawBELEtixx - Quick Step03:38:03  +  00:11:09=43,889 
169 AUSZakkari DempsterDEUBora-Argon 1803:38:03  +  00:11:09=43,889 
170 IMNMark CavendishBELEtixx - Quick Step03:38:03  +  00:11:09=43,889 
171 ITAJacopo GuarnieriRUSTeam Katusha03:38:03  +  00:11:09=43,889 
172 FRANacer BouhanniFRACofidis – Solutions Crédits03:38:03  +  00:11:09=43,889 
173 ITAManuel QuinziatoUSABMC Racing Team03:38:03  +  00:11:09=43,889 
174 ENGAlex DowsettESPMovistar Team03:38:03  +  00:11:09=43,889 
175 DEUAndreas SchillingerDEUBora-Argon 1803:38:03  +  00:11:09=43,889 
176 BELKenneth VanbilsenFRACofidis – Solutions Crédits03:38:03  +  00:11:09=43,889 
177 ENGIan StannardGBRSky Procycling03:38:03  +  00:11:09=43,889 
178 NLDTom LeezerNLDTeam Lotto NL - Jumbo03:38:03  +  00:11:09=43,889 
179 NLDSebastian LangeveldUSATeam Cannondale - Garmin03:38:03  +  00:11:09=43,889 
180 CANSvein TuftAUSOrica - GreenEDGE03:38:03  +  00:11:09=43,889 
181 BELJohan VansummerenFRAAg2r La Mondiale03:38:18  +  00:11:24=43,839 
182 WALLuke RoweGBRSky Procycling03:38:20  +  00:11:26=43,832 
183 ZAFDaryl ImpeyAUSOrica - GreenEDGE03:38:22  +  00:11:28=43,825 
184 DEUJohn DegenkolbDEUTeam Giant Alpecin03:38:22  +  00:11:28=43,825 
185 ITAFilippo PozzatoITALampre-Merida03:38:30  +  00:11:36=43,799 
186 ITADavide CimolaiITALampre-Merida03:38:30  +  00:11:36=43,799 
187 ESPMarkel IrizarUSATrek Factory Racing03:38:37  +  00:11:43=43,775 
188 CHEFabian CancellaraUSATrek Factory Racing03:38:37  +  00:11:43=43,775 
189 BELSam BennettDEUBora-Argon 1803:38:39  +  00:11:45=43,769 
190 NORAlexander KristoffRUSTeam Katusha03:38:41  +  00:11:47=43,762 
191 AUTMarco HallerRUSTeam Katusha03:38:41  +  00:11:47=43,762 
192 NLDLaurens ten DamNLDTeam Lotto NL - Jumbo03:40:32  +  00:13:38=43,395 
193 NZLGregory HendersonBELLotto Soudal03:41:07  +  00:14:13=43,280 
194 AUSMichael MatthewsAUSOrica - GreenEDGE03:48:32  +  00:21:38=41,876 

Withdrawls: 4
 
Rider
Team
Reason
22  FRAWilliam BonnetFRAFDJDid not finish
85  NLDTom DumoulinDEUTeam Giant AlpecinDid not finish
95  RUSDimitry KozonchukRUSTeam KatushaDid not finish
101  AUSSimon GerransAUSOrica - GreenEDGEDid not finish

Todays birthdays.

1888  René Etien
1891  Arturo Ferrario
1913  Léon Theerlynck
1921  Roger Piel
1929  Antonio Ferraz
1930  Rizzardo Brenioli
1934  Orphée Meneghini
1943  Pietro Guerra
1961  Marc Somers
1964  Ettore Badolato
1967  Miguel Angel Martinez
1968  Davide Bramati
1981  Vasil Kiryienka